Time;durP1;ratioP1;P1;durP2;ratioP2;P2;SDS_P1;SDS_P2;PMS_P1;PMS_P2;Temp;Humidity;BMP_temperature;BMP_pressure;BME280_temperature;BME280_humidity;BME280_pressure;Samples;Min_cycle;Max_cycle;Signal;HPM_P1;HPM_P2
2022/07/18 00:00:20;;;;;;;1.43;0.90;;;19.70;76.90;;;;;;6125228;23;20422;-78
2022/07/18 00:02:47;;;;;;;1.43;0.90;;;19.70;77.30;;;;;;6124514;23;20424;-77
2022/07/18 00:05:13;;;;;;;1.40;0.90;;;19.60;77.30;;;;;;6124173;23;20430;-75
2022/07/18 00:07:41;;;;;;;1.47;0.90;;;19.60;77.40;;;;;;6120232;23;20431;-76
2022/07/18 00:10:08;;;;;;;1.40;0.90;;;19.60;77.40;;;;;;6120861;23;20475;-75
2022/07/18 00:12:36;;;;;;;1.43;0.90;;;19.50;77.20;;;;;;6120094;23;20445;-75
2022/07/18 00:15:06;;;;;;;1.50;0.90;;;19.50;77.70;;;;;;6120998;23;20426;-75
2022/07/18 00:17:33;;;;;;;1.50;0.90;;;19.50;77.30;;;;;;6120654;23;20501;-76
2022/07/18 00:20:00;;;;;;;1.47;0.90;;;19.50;77.20;;;;;;6119590;23;20478;-75
2022/07/18 00:22:27;;;;;;;1.43;0.90;;;19.50;76.70;;;;;;6120365;23;20449;-76
2022/07/18 00:24:54;;;;;;;1.43;0.90;;;19.50;77.00;;;;;;6129683;23;20448;-76
2022/07/18 00:27:21;;;;;;;1.40;0.90;;;19.50;77.60;;;;;;6121271;23;20480;-76
2022/07/18 00:29:48;;;;;;;1.40;0.90;;;19.50;77.60;;;;;;6119897;23;20430;-76
2022/07/18 00:32:16;;;;;;;1.50;1.00;;;19.50;78.00;;;;;;6120300;23;20449;-76
2022/07/18 00:34:43;;;;;;;1.47;0.90;;;19.40;78.60;;;;;;6120409;23;20790;-76
2022/07/18 00:37:10;;;;;;;1.40;0.90;;;19.40;78.50;;;;;;6120388;23;20421;-76
2022/07/18 00:39:38;;;;;;;1.40;0.90;;;19.30;78.80;;;;;;6120559;23;20748;-76
2022/07/18 00:42:05;;;;;;;1.40;0.90;;;19.30;78.70;;;;;;6120056;23;20469;-76
2022/07/18 00:44:32;;;;;;;1.47;0.90;;;19.30;79.10;;;;;;6120964;23;21147;-76
2022/07/18 00:47:02;;;;;;;1.40;0.90;;;19.20;79.20;;;;;;6121037;23;20417;-76
2022/07/18 00:49:31;;;;;;;1.40;0.90;;;19.20;79.50;;;;;;6120137;23;20433;-76
2022/07/18 00:51:58;;;;;;;1.43;0.90;;;19.10;80.00;;;;;;6121733;23;20442;-76
2022/07/18 00:54:25;;;;;;;1.50;0.90;;;19.10;79.80;;;;;;6131581;23;20753;-76
2022/07/18 00:56:52;;;;;;;1.47;0.90;;;19.10;79.80;;;;;;6120283;23;20422;-76
2022/07/18 00:59:19;;;;;;;1.43;0.90;;;19.10;79.10;;;;;;6121604;23;20516;-76
2022/07/18 01:01:47;;;;;;;1.40;0.90;;;19.10;79.30;;;;;;6121179;23;20448;-75
2022/07/18 01:04:16;;;;;;;1.43;0.90;;;19.10;78.70;;;;;;6121803;23;20505;-76
2022/07/18 01:06:45;;;;;;;1.40;0.90;;;19.10;79.20;;;;;;6121425;23;20426;-76
2022/07/18 01:09:12;;;;;;;1.40;0.90;;;19.00;78.80;;;;;;6121157;23;20457;-76
2022/07/18 01:11:39;;;;;;;1.43;0.90;;;19.00;78.90;;;;;;6120769;23;20473;-76
2022/07/18 01:14:07;;;;;;;1.47;0.90;;;19.00;79.00;;;;;;6121693;23;20521;-76
2022/07/18 01:16:35;;;;;;;1.40;1.00;;;19.00;79.00;;;;;;6121390;23;20423;-76
2022/07/18 01:19:03;;;;;;;1.50;0.90;;;19.00;79.00;;;;;;6121883;23;20445;-76
2022/07/18 01:21:31;;;;;;;1.47;0.90;;;19.00;79.80;;;;;;6120574;23;20442;-76
2022/07/18 01:23:58;;;;;;;1.43;0.90;;;19.00;79.30;;;;;;6121618;23;20417;-76
2022/07/18 01:26:25;;;;;;;1.40;0.90;;;19.00;80.30;;;;;;6121503;23;21139;-76
2022/07/18 01:28:52;;;;;;;1.40;0.90;;;19.00;80.00;;;;;;6121768;23;20425;-76
2022/07/18 01:31:19;;;;;;;1.50;0.90;;;19.00;80.10;;;;;;6121148;23;20473;-76
2022/07/18 01:33:46;;;;;;;1.40;0.90;;;19.00;80.30;;;;;;6120697;23;20448;-76
2022/07/18 01:36:13;;;;;;;1.50;0.90;;;18.90;80.20;;;;;;6124043;23;20505;-76
2022/07/18 01:38:42;;;;;;;1.40;0.90;;;18.90;80.30;;;;;;6120794;23;20425;-76
2022/07/18 01:41:09;;;;;;;1.40;0.90;;;18.80;80.10;;;;;;6120197;23;20829;-76
2022/07/18 01:43:41;;;;;;;1.43;0.90;;;18.80;80.10;;;;;;6120168;23;20971;-76
2022/07/18 01:46:09;;;;;;;1.40;0.90;;;18.70;80.60;;;;;;6119990;23;20462;-76
2022/07/18 01:48:39;;;;;;;1.40;0.90;;;18.70;81.20;;;;;;6120273;23;20744;-76
2022/07/18 01:51:09;;;;;;;1.40;0.90;;;18.60;81.60;;;;;;6119858;23;20473;-76
2022/07/18 01:53:37;;;;;;;1.47;1.00;;;18.60;81.60;;;;;;6122877;23;20762;-78
2022/07/18 01:56:07;;;;;;;1.43;0.97;;;18.50;81.70;;;;;;6112096;23;20429;-76
2022/07/18 01:58:33;;;;;;;1.40;0.90;;;18.50;81.90;;;;;;6118022;23;20437;-76
2022/07/18 02:01:00;;;;;;;1.50;1.20;;;18.40;82.00;;;;;;6118891;23;20442;-76
2022/07/18 02:03:27;;;;;;;1.40;0.90;;;18.40;82.30;;;;;;6121267;23;20480;-77
2022/07/18 02:05:54;;;;;;;1.43;0.90;;;18.40;82.60;;;;;;6122166;23;20517;-77
2022/07/18 02:08:21;;;;;;;1.50;0.90;;;18.40;82.50;;;;;;6122485;23;20491;-78
2022/07/18 02:10:48;;;;;;;1.43;0.97;;;18.30;83.50;;;;;;6121327;23;20437;-78
2022/07/18 02:13:19;;;;;;;1.43;0.90;;;18.30;82.60;;;;;;6122507;23;20505;-76
2022/07/18 02:15:46;;;;;;;1.43;0.90;;;18.20;83.10;;;;;;6120369;23;20410;-77
2022/07/18 02:18:13;;;;;;;1.50;1.00;;;18.20;83.70;;;;;;6122505;23;20432;-78
2022/07/18 02:20:40;;;;;;;1.47;1.00;;;18.20;83.90;;;;;;6121381;23;20960;-75
2022/07/18 02:23:08;;;;;;;1.43;0.90;;;18.10;84.10;;;;;;6118991;23;20472;-75
2022/07/18 02:25:35;;;;;;;1.40;0.90;;;18.10;84.50;;;;;;6119410;23;20422;-75
2022/07/18 02:28:02;;;;;;;1.40;0.90;;;18.00;84.70;;;;;;6119768;23;20763;-75
2022/07/18 02:30:30;;;;;;;1.40;0.90;;;18.00;84.80;;;;;;6119480;23;20442;-75
2022/07/18 02:32:57;;;;;;;1.50;1.00;;;18.00;84.80;;;;;;6118363;23;20983;-75
2022/07/18 02:35:24;;;;;;;1.43;0.90;;;17.90;84.90;;;;;;6118637;23;20422;-75
2022/07/18 02:37:51;;;;;;;1.50;0.90;;;17.90;85.60;;;;;;6118940;23;20450;-76
2022/07/18 02:40:18;;;;;;;1.43;0.90;;;17.90;84.70;;;;;;6075341;23;1253874;-76
2022/07/18 02:42:45;;;;;;;1.43;0.90;;;17.80;85.40;;;;;;6120224;23;20481;-76
2022/07/18 02:45:12;;;;;;;1.50;0.90;;;17.80;86.00;;;;;;6119742;23;20418;-76
2022/07/18 02:47:41;;;;;;;1.40;0.93;;;17.80;85.90;;;;;;6129644;23;20452;-76
2022/07/18 02:50:09;;;;;;;1.43;0.90;;;17.70;86.80;;;;;;6120429;23;20944;-76
2022/07/18 02:52:36;;;;;;;1.50;0.90;;;17.70;85.70;;;;;;6120017;23;20500;-76
2022/07/18 02:55:03;;;;;;;1.50;1.00;;;17.70;87.10;;;;;;6121319;23;20429;-76
2022/07/18 02:57:30;;;;;;;1.40;0.90;;;17.70;86.90;;;;;;6122751;23;20514;-77
2022/07/18 02:59:57;;;;;;;1.40;1.00;;;17.60;86.80;;;;;;6122217;23;20421;-76
2022/07/18 03:02:24;;;;;;;1.40;0.90;;;17.60;87.10;;;;;;6121788;23;20452;-76
2022/07/18 03:04:53;;;;;;;1.47;0.90;;;17.60;87.20;;;;;;6122106;23;20509;-76
2022/07/18 03:07:20;;;;;;;1.50;1.00;;;17.60;87.90;;;;;;6122275;23;20422;-76
2022/07/18 03:09:47;;;;;;;1.47;0.90;;;17.50;87.60;;;;;;6122050;23;20928;-77
2022/07/18 03:12:14;;;;;;;1.40;1.00;;;17.50;87.30;;;;;;6122097;23;20438;-76
2022/07/18 03:14:41;;;;;;;1.47;0.90;;;17.50;87.20;;;;;;6121787;23;20446;-76
2022/07/18 03:17:08;;;;;;;1.47;0.90;;;17.40;88.00;;;;;;6122689;23;20421;-76
2022/07/18 03:19:35;;;;;;;1.47;0.90;;;17.40;87.90;;;;;;6122564;23;20480;-76
2022/07/18 03:22:04;;;;;;;1.50;0.90;;;17.40;87.40;;;;;;6122300;23;20445;-76
2022/07/18 03:24:31;;;;;;;1.50;1.00;;;17.40;88.20;;;;;;6122339;23;20417;-76
2022/07/18 03:26:58;;;;;;;1.47;0.93;;;17.30;88.50;;;;;;6122007;23;20448;-77
2022/07/18 03:29:25;;;;;;;1.47;0.90;;;17.30;88.50;;;;;;6122628;23;20900;-76
2022/07/18 03:31:53;;;;;;;1.50;0.90;;;17.30;88.40;;;;;;6122335;23;20476;-76
2022/07/18 03:34:20;;;;;;;1.43;0.90;;;17.30;89.10;;;;;;6122691;23;20442;-76
2022/07/18 03:36:47;;;;;;;1.40;0.90;;;17.30;88.60;;;;;;6122543;23;20498;-76
2022/07/18 03:39:15;;;;;;;1.43;0.90;;;17.20;88.40;;;;;;6122971;23;20421;-76
2022/07/18 03:41:42;;;;;;;1.40;0.90;;;17.20;89.20;;;;;;6122172;23;20471;-76
2022/07/18 03:44:09;;;;;;;1.47;0.90;;;17.20;88.60;;;;;;6122375;23;20426;-76
2022/07/18 03:46:37;;;;;;;1.50;0.90;;;17.20;89.30;;;;;;6122264;23;20428;-76
2022/07/18 03:49:04;;;;;;;1.50;1.00;;;17.20;89.60;;;;;;6122015;23;20801;-76
2022/07/18 05:56:35;;;;;;;1.43;0.90;;;21.10;76.90;;;;;;6119528;23;20977;-77
2022/07/18 05:59:04;;;;;;;1.50;1.10;;;21.20;75.90;;;;;;6119697;23;20480;-77
2022/07/18 06:01:31;;;;;;;1.47;0.90;;;21.30;74.90;;;;;;6120887;23;20493;-76
2022/07/18 06:03:58;;;;;;;1.50;0.90;;;21.40;74.10;;;;;;6119109;23;20512;-76
2022/07/18 06:06:26;;;;;;;1.47;0.90;;;21.60;73.60;;;;;;6118605;23;20425;-77
2022/07/18 06:08:53;;;;;;;1.47;0.90;;;21.80;72.80;;;;;;6117489;23;20422;-77
2022/07/18 06:11:20;;;;;;;1.50;0.90;;;21.90;72.60;;;;;;6117791;23;20425;-77
2022/07/18 06:13:49;;;;;;;1.47;0.90;;;22.10;72.20;;;;;;6118376;23;20454;-77
2022/07/18 06:16:16;;;;;;;1.47;0.90;;;22.30;71.60;;;;;;6116892;23;20433;-76
2022/07/18 06:18:43;;;;;;;1.43;0.90;;;22.50;70.80;;;;;;6119570;23;20931;-78
2022/07/18 06:21:10;;;;;;;1.47;0.90;;;22.60;70.40;;;;;;6118286;23;20425;-76
2022/07/18 06:23:38;;;;;;;1.47;0.90;;;22.70;69.80;;;;;;6134549;23;21069;-75
2022/07/18 06:26:05;;;;;;;1.43;0.90;;;22.80;69.60;;;;;;6128523;23;20436;-77
2022/07/18 06:28:32;;;;;;;1.50;1.00;;;23.10;69.70;;;;;;6121965;23;20520;-75
2022/07/18 06:31:02;;;;;;;1.47;0.90;;;23.40;68.20;;;;;;6119884;23;20455;-75
2022/07/18 06:33:33;;;;;;;1.47;0.90;;;23.50;68.00;;;;;;6120913;23;20994;-77
2022/07/18 06:36:00;;;;;;;1.47;0.90;;;23.50;67.40;;;;;;6130728;23;20434;-77
2022/07/18 06:38:27;;;;;;;1.40;0.90;;;23.60;67.20;;;;;;6123759;23;20425;-77
2022/07/18 06:40:54;;;;;;;1.43;0.90;;;23.80;67.10;;;;;;6121358;23;20955;-76
2022/07/18 06:43:21;;;;;;;1.47;0.90;;;23.80;66.90;;;;;;6121525;23;20528;-77
2022/07/18 06:45:51;;;;;;;1.47;0.90;;;24.00;66.90;;;;;;6120774;23;20426;-76
2022/07/18 06:48:21;;;;;;;1.50;0.90;;;24.30;66.50;;;;;;6124457;23;20905;-76
2022/07/18 06:50:49;;;;;;;1.40;0.80;;;24.50;65.70;;;;;;6139151;23;20434;-76
2022/07/18 06:53:16;;;;;;;1.47;0.80;;;24.50;65.90;;;;;;6129202;23;20442;-77
2022/07/18 06:55:50;;;;;;;1.43;0.90;;;24.80;65.60;;;;;;6136749;23;20461;-77
2022/07/18 06:58:24;;;;;;;1.47;0.80;;;25.00;65.40;;;;;;6130651;23;20726;-77
2022/07/18 07:00:53;;;;;;;1.43;0.87;;;25.30;65.50;;;;;;6134220;23;20414;-77
2022/07/18 07:03:22;;;;;;;1.47;0.90;;;25.70;63.60;;;;;;6131567;23;20951;-77
2022/07/18 07:05:54;;;;;;;1.50;0.90;;;25.90;63.60;;;;;;6141264;23;20454;-75
2022/07/18 07:08:23;;;;;;;1.50;0.90;;;26.20;63.10;;;;;;6138916;23;20586;-77
2022/07/18 07:10:52;;;;;;;1.50;1.00;;;26.40;62.40;;;;;;6135631;23;20449;-77
2022/07/18 07:13:19;;;;;;;1.50;0.90;;;26.50;62.10;;;;;;6133642;23;20888;-77
2022/07/18 07:15:47;;;;;;;1.47;0.90;;;26.70;62.40;;;;;;6121003;23;20912;-77
2022/07/18 07:18:16;;;;;;;1.43;0.90;;;27.00;61.80;;;;;;6122518;23;20422;-78
2022/07/18 07:20:54;;;;;;;1.50;0.80;;;27.30;60.20;;;;;;6134058;23;20781;-77
2022/07/18 07:23:22;;;;;;;1.50;0.90;;;27.60;60.70;;;;;;6125825;23;20873;-78
2022/07/18 07:25:49;;;;;;;1.50;0.90;;;27.70;60.20;;;;;;6140354;23;20500;-77
2022/07/18 07:28:18;;;;;;;1.43;0.80;;;27.70;60.40;;;;;;6136392;23;21034;-79
2022/07/18 07:30:46;;;;;;;1.50;0.80;;;27.90;60.10;;;;;;6135912;23;20436;-79
2022/07/18 07:33:13;;;;;;;1.40;0.80;;;27.90;60.00;;;;;;6129054;23;20641;-78
2022/07/18 07:35:44;;;;;;;1.50;0.90;;;28.00;60.10;;;;;;6133247;23;20421;-81
2022/07/18 07:38:18;;;;;;;1.47;0.80;;;28.10;59.60;;;;;;6140693;23;20481;-79
2022/07/18 07:45:16;;;;;;;;;;;;;;;;;;;;;
2022/07/18 07:48:18;;;;;;;1.43;0.80;;;28.40;58.40;;;;;;6060356;23;20432;-78
2022/07/18 07:54:37;;;;;;;1.43;0.80;;;28.70;57.70;;;;;;6142564;23;20452;-80
2022/07/18 07:57:52;;;;;;;1.70;1.00;;;28.70;58.00;;;;;;6145582;23;20427;-78
2022/07/18 08:00:57;;;;;;;1.40;0.80;;;28.60;59.20;;;;;;6059259;23;20424;-79
2022/07/18 08:12:13;;;;;;;1.40;0.80;;;29.50;57.00;;;;;;6113850;23;20429;-79
2022/07/18 08:14:44;;;;;;;1.50;1.00;;;29.50;57.40;;;;;;6129794;23;20452;-79
2022/07/18 08:17:15;;;;;;;1.47;0.80;;;29.80;57.00;;;;;;6126449;23;20425;-79
2022/07/18 08:23:26;;;;;;;1.43;0.80;;;30.40;57.10;;;;;;6105067;23;20496;-79
2022/07/18 08:29:50;;;;;;;1.50;0.90;;;30.90;55.60;;;;;;6135462;23;20417;-80
2022/07/18 08:35:25;;;;;;;1.40;0.80;;;31.50;54.50;;;;;;6123006;23;20480;-81
2022/07/18 08:41:05;;;;;;;1.43;0.80;;;31.60;53.00;;;;;;6110347;23;20423;-80
2022/07/18 08:43:33;;;;;;;1.40;0.80;;;31.80;52.40;;;;;;6131091;23;20449;-78
2022/07/18 08:46:05;;;;;;;1.60;1.30;;;32.00;53.90;;;;;;6135488;23;20233;-80
2022/07/18 08:48:32;;;;;;;1.47;0.80;;;31.90;53.00;;;;;;6124890;23;20441;-81
2022/07/18 08:51:04;;;;;;;1.50;0.97;;;32.00;53.30;;;;;;6125448;23;20485;-80
2022/07/18 08:53:33;;;;;;;1.43;0.80;;;32.20;53.50;;;;;;6136439;23;20197;-79
2022/07/18 08:56:01;;;;;;;1.43;0.80;;;32.30;52.80;;;;;;6133094;23;20177;-79
2022/07/18 08:58:29;;;;;;;1.50;0.80;;;32.50;52.70;;;;;;6126844;23;20743;-78
2022/07/18 09:01:01;;;;;;;1.47;0.80;;;32.60;52.60;;;;;;6123759;23;20425;-79
2022/07/18 09:10:11;;;;;;;1.47;0.80;;;32.80;52.60;;;;;;6124694;23;20252;-78
2022/07/18 09:12:41;;;;;;;1.47;0.80;;;33.20;51.60;;;;;;6129658;23;20185;-79
2022/07/18 09:25:21;;;;;;;1.42;0.80;;;34.10;49.50;;;;;;6108457;23;20698;-80
2022/07/18 09:27:50;;;;;;;1.40;0.80;;;34.30;49.50;;;;;;6129311;23;20265;-79
2022/07/18 09:30:35;;;;;;;1.40;0.80;;;34.50;49.90;;;;;;6127916;23;20552;-79
2022/07/18 09:33:11;;;;;;;1.40;0.80;;;34.70;49.40;;;;;;6136947;23;20198;-79
2022/07/18 09:48:41;;;;;;;1.40;0.80;;;35.20;48.80;;;;;;6054368;23;20699;-78
2022/07/18 09:51:13;;;;;;;1.40;0.80;;;35.40;47.30;;;;;;6128433;23;20264;-79
2022/07/18 09:54:08;;;;;;;1.40;0.80;;;35.60;48.10;;;;;;6129663;23;20208;-78
2022/07/18 09:56:52;;;;;;;1.40;0.80;;;35.80;47.30;;;;;;6129399;23;20177;-79
2022/07/18 09:59:22;;;;;;;1.40;0.80;;;35.60;47.10;;;;;;6132287;23;20181;-79
2022/07/18 10:04:58;;;;;;;1.40;0.80;;;35.70;47.10;;;;;;6124429;23;20680;-81
2022/07/18 10:10:56;;;;;;;1.40;0.80;;;36.10;46.20;;;;;;6114603;23;20559;-78
2022/07/18 10:13:25;;;;;;;1.40;0.90;;;36.10;47.90;;;;;;6124114;23;20197;-80
2022/07/18 10:15:53;;;;;;;1.40;0.80;;;36.30;45.60;;;;;;6135052;23;20188;-78
2022/07/18 10:18:23;;;;;;;1.40;0.80;;;36.50;45.30;;;;;;6125799;23;20252;-76
2022/07/18 10:20:58;;;;;;;1.40;0.80;;;36.70;45.70;;;;;;6125737;23;20206;-77
2022/07/18 10:23:30;;;;;;;1.40;0.80;;;36.90;43.70;;;;;;6130399;23;20193;-76
2022/07/18 10:26:13;;;;;;;1.38;0.80;;;37.00;45.00;;;;;;6122650;23;20185;-77
2022/07/18 10:29:25;;;;;;;1.40;0.80;;;37.10;44.70;;;;;;6123198;23;20269;-78
2022/07/18 10:32:04;;;;;;;1.40;0.80;;;37.20;44.20;;;;;;6059123;23;20811;-76
2022/07/18 10:34:35;;;;;;;1.40;0.80;;;37.40;43.60;;;;;;6116770;23;20181;-77
2022/07/18 10:37:24;;;;;;;1.40;0.80;;;37.50;43.80;;;;;;6126607;23;20178;-79
2022/07/18 10:39:54;;;;;;;1.40;0.80;;;37.30;42.90;;;;;;6125641;23;20529;-76
2022/07/18 10:42:24;;;;;;;1.40;0.80;;;37.00;42.50;;;;;;6127020;23;20440;-78
2022/07/18 10:44:52;;;;;;;1.40;1.00;;;37.00;44.80;;;;;;6125338;23;20201;-78
2022/07/18 10:47:30;;;;;;;1.40;0.80;;;37.10;43.70;;;;;;6126037;23;20213;-77
2022/07/18 10:50:06;;;;;;;1.38;0.80;;;37.10;45.40;;;;;;6126614;23;20599;-77
2022/07/18 10:53:01;;;;;;;1.38;0.80;;;37.00;44.10;;;;;;6126745;23;20204;-78
2022/07/18 10:55:31;;;;;;;1.38;0.80;;;37.00;43.80;;;;;;6112695;23;20182;-77
2022/07/18 10:58:21;;;;;;;1.40;0.80;;;37.40;43.90;;;;;;6135983;23;20717;-77
2022/07/18 11:01:09;;;;;;;1.40;0.80;;;37.60;43.20;;;;;;6126085;23;20212;-77
2022/07/18 11:03:37;;;;;;;1.38;0.80;;;37.90;44.10;;;;;;6126006;23;20272;-78
2022/07/18 11:06:08;;;;;;;1.40;0.80;;;38.10;43.10;;;;;;6137636;23;20273;-77
2022/07/18 11:08:41;;;;;;;1.40;0.80;;;38.30;43.80;;;;;;6136201;23;20177;-77
2022/07/18 11:11:15;;;;;;;1.40;0.80;;;38.50;42.80;;;;;;6134685;23;20192;-77
2022/07/18 11:13:49;;;;;;;1.38;0.80;;;38.70;44.10;;;;;;6134317;23;20174;-77
2022/07/18 11:16:24;;;;;;;1.38;0.80;;;38.80;42.40;;;;;;6126460;23;20169;-78
2022/07/18 11:19:21;;;;;;;1.40;0.80;;;38.90;43.50;;;;;;6134933;23;20201;-77
2022/07/18 11:21:58;;;;;;;1.38;0.80;;;38.90;43.30;;;;;;6136680;23;20168;-76
2022/07/18 11:24:27;;;;;;;1.40;0.80;;;38.80;43.20;;;;;;6130577;23;20209;-78
2022/07/18 11:26:58;;;;;;;1.40;0.90;;;38.80;42.90;;;;;;6128382;23;20267;-77
2022/07/18 11:29:28;;;;;;;1.40;0.80;;;38.70;42.80;;;;;;6130053;23;20276;-77
2022/07/18 11:32:02;;;;;;;1.40;0.80;;;38.70;43.00;;;;;;6139519;23;20188;-77
2022/07/18 11:34:41;;;;;;;1.38;0.80;;;38.70;44.00;;;;;;6143183;23;20456;-77
2022/07/18 11:37:09;;;;;;;1.38;0.80;;;38.90;43.10;;;;;;6126261;23;20245;-77
2022/07/18 11:39:36;;;;;;;1.38;0.80;;;39.00;43.70;;;;;;6138163;23;20198;-77
2022/07/18 11:42:05;;;;;;;1.40;0.80;;;38.90;41.60;;;;;;6123701;23;20656;-77
2022/07/18 11:44:33;;;;;;;1.40;0.80;;;38.70;43.80;;;;;;6133466;23;20538;-77
2022/07/18 11:47:06;;;;;;;1.40;0.80;;;38.90;42.90;;;;;;6129860;23;20747;-77
2022/07/18 11:49:34;;;;;;;1.38;0.80;;;38.90;41.90;;;;;;6124799;23;20216;-77
2022/07/18 11:52:02;;;;;;;1.35;0.80;;;39.00;41.90;;;;;;6133311;23;20178;-77
2022/07/18 11:54:32;;;;;;;1.40;0.80;;;39.10;42.90;;;;;;6125602;23;20209;-76
2022/07/18 12:00:35;;;;;;;1.38;0.80;;;39.30;41.40;;;;;;6121834;23;20193;-77
2022/07/18 12:03:10;;;;;;;1.40;0.80;;;39.10;42.30;;;;;;6113256;23;20200;-78
2022/07/18 12:05:43;;;;;;;1.38;0.85;;;39.10;43.40;;;;;;6138005;23;20686;-77
2022/07/18 12:08:30;;;;;;;1.38;0.80;;;39.20;42.30;;;;;;6127732;23;20197;-78
2022/07/18 12:11:19;;;;;;;1.38;0.80;;;39.10;43.40;;;;;;6137049;23;20192;-77
2022/07/18 12:13:54;;;;;;;1.35;0.80;;;39.20;42.60;;;;;;6136954;23;20177;-77
2022/07/18 12:16:35;;;;;;;1.40;0.80;;;39.20;43.10;;;;;;6126243;23;20295;-76
2022/07/18 12:19:11;;;;;;;1.38;0.80;;;39.20;41.70;;;;;;6137577;23;20860;-77
2022/07/18 12:21:48;;;;;;;1.38;0.80;;;39.40;42.40;;;;;;6124251;23;20189;-77
2022/07/18 12:24:35;;;;;;;1.35;0.80;;;39.60;41.20;;;;;;6136353;23;20177;-76
2022/07/18 12:27:16;;;;;;;1.40;0.80;;;39.90;42.90;;;;;;6126993;23;20229;-78
2022/07/18 12:30:11;;;;;;;1.38;0.80;;;40.10;43.00;;;;;;6124446;23;20205;-77
2022/07/18 12:32:48;;;;;;;1.38;0.80;;;40.40;41.80;;;;;;6117516;23;20162;-78
2022/07/18 12:35:18;;;;;;;1.38;0.80;;;40.60;40.50;;;;;;6122066;23;20161;-77
2022/07/18 12:37:57;;;;;;;1.35;0.80;;;40.70;41.80;;;;;;6125362;23;20166;-76
2022/07/18 12:40:25;;;;;;;1.38;0.80;;;40.70;40.10;;;;;;6128934;23;20201;-78
2022/07/18 12:43:03;;;;;;;1.38;0.80;;;40.60;42.20;;;;;;6119690;23;20724;-77
2022/07/18 12:45:37;;;;;;;1.38;0.80;;;40.70;40.80;;;;;;6126117;23;20248;-77
2022/07/18 12:48:08;;;;;;;1.35;0.80;;;40.70;39.90;;;;;;6122925;23;20191;-76
2022/07/18 12:50:36;;;;;;;1.35;0.80;;;40.70;42.30;;;;;;6121590;23;20221;-77
2022/07/18 12:53:04;;;;;;;1.40;0.80;;;40.80;40.70;;;;;;6122101;23;20268;-78
2022/07/18 12:55:32;;;;;;;1.33;0.80;;;40.70;40.50;;;;;;6134508;23;20182;-78
2022/07/18 12:58:00;;;;;;;1.30;0.80;;;40.50;40.00;;;;;;6124427;23;20244;-77
2022/07/18 13:00:28;;;;;;;1.38;0.80;;;40.60;42.10;;;;;;6123555;23;20205;-77
2022/07/18 13:02:57;;;;;;;1.38;0.80;;;40.50;40.50;;;;;;6124974;23;20196;-77
2022/07/18 13:05:31;;;;;;;1.38;0.80;;;40.30;40.00;;;;;;6134215;23;20510;-77
2022/07/18 13:07:59;;;;;;;1.40;0.80;;;40.20;40.30;;;;;;6123794;23;20220;-77
2022/07/18 13:10:30;;;;;;;1.40;0.80;;;40.10;40.20;;;;;;6125390;23;20214;-78
2022/07/18 13:12:58;;;;;;;1.40;0.80;;;39.80;40.30;;;;;;6126157;23;20170;-77
2022/07/18 13:15:25;;;;;;;1.35;0.80;;;39.40;41.00;;;;;;6131094;23;20173;-77
2022/07/18 13:17:53;;;;;;;1.38;0.80;;;39.20;41.10;;;;;;6121921;23;20590;-78
2022/07/18 13:20:20;;;;;;;1.38;0.80;;;39.10;41.20;;;;;;6129686;23;20216;-76
2022/07/18 13:22:50;;;;;;;1.38;0.80;;;39.10;41.30;;;;;;6120048;23;20819;-77
2022/07/18 13:25:18;;;;;;;1.38;0.80;;;39.40;41.30;;;;;;6124942;23;20206;-75
2022/07/18 13:27:46;;;;;;;1.38;0.80;;;39.70;43.40;;;;;;6121806;23;20185;-76
2022/07/18 13:44:35;;;;;;;1.30;0.80;;;40.30;41.50;;;;;;6133128;23;20145;-76
2022/07/18 13:47:02;;;;;;;1.38;0.80;;;40.30;41.90;;;;;;6137446;23;20200;-77
2022/07/18 13:49:30;;;;;;;1.35;0.80;;;40.20;40.70;;;;;;6123561;23;20201;-77
2022/07/18 13:51:58;;;;;;;1.35;0.80;;;40.10;41.20;;;;;;6118378;23;20181;-76
2022/07/18 13:54:25;;;;;;;1.38;0.80;;;40.00;40.60;;;;;;6121167;23;20688;-76
2022/07/18 13:57:02;;;;;;;1.40;0.90;;;39.90;42.00;;;;;;6124717;23;20193;-78
2022/07/18 13:59:31;;;;;;;1.33;0.80;;;40.00;42.40;;;;;;6133079;23;20208;-78
2022/07/18 14:01:58;;;;;;;1.38;0.80;;;40.00;40.10;;;;;;6134151;23;20192;-77
2022/07/18 14:04:26;;;;;;;1.35;0.80;;;40.10;41.20;;;;;;6135815;23;20177;-76
2022/07/18 14:06:54;;;;;;;1.33;0.80;;;40.00;41.60;;;;;;6122722;23;20670;-77
2022/07/18 14:09:21;;;;;;;1.38;0.80;;;40.00;40.90;;;;;;6121665;23;20279;-77
2022/07/18 14:11:49;;;;;;;1.35;0.80;;;40.00;42.00;;;;;;6122078;23;20308;-77
2022/07/18 14:14:33;;;;;;;1.35;0.80;;;40.20;41.80;;;;;;6126318;23;20492;-77
2022/07/18 14:36:47;;;;;;;1.38;0.80;;;40.40;40.60;;;;;;6065649;23;20607;-78
2022/07/18 14:39:23;;;;;;;1.38;0.80;;;40.50;41.70;;;;;;6148382;23;20200;-78
2022/07/18 14:41:51;;;;;;;1.38;0.80;;;40.60;41.30;;;;;;6160517;23;20183;-77
2022/07/18 14:44:19;;;;;;;1.38;0.80;;;40.50;40.70;;;;;;6154427;23;20212;-76
2022/07/18 14:46:46;;;;;;;1.33;0.80;;;40.30;41.00;;;;;;6152968;23;20798;-77
2022/07/18 14:49:23;;;;;;;1.40;0.80;;;40.20;40.10;;;;;;6155567;23;20577;-77
2022/07/18 14:51:54;;;;;;;1.38;0.80;;;40.00;40.80;;;;;;6163054;23;20184;-77
2022/07/18 14:54:22;;;;;;;1.40;0.80;;;39.80;39.70;;;;;;6156228;23;20177;-78
2022/07/18 14:56:50;;;;;;;1.35;0.80;;;39.60;41.50;;;;;;6167037;23;20868;-77
2022/07/18 14:59:17;;;;;;;1.40;0.80;;;39.70;41.90;;;;;;6160622;23;20656;-78
2022/07/18 15:01:48;;;;;;;1.38;0.80;;;39.90;41.80;;;;;;6159380;23;20243;-77
2022/07/18 15:04:20;;;;;;;1.38;0.80;;;40.00;40.10;;;;;;6158932;23;20188;-77
2022/07/18 15:06:47;;;;;;;1.35;0.80;;;40.00;41.00;;;;;;6160323;23;20232;-77
2022/07/18 15:09:16;;;;;;;1.35;0.80;;;40.00;42.30;;;;;;6161079;23;20240;-78
2022/07/18 15:11:44;;;;;;;1.48;1.27;;;40.10;41.70;;;;;;6161252;23;20189;-76
2022/07/18 15:14:12;;;;;;;1.40;0.80;;;40.10;39.90;;;;;;6160500;23;20644;-77
2022/07/18 15:16:39;;;;;;;1.40;0.80;;;40.00;41.20;;;;;;6171550;23;20189;-77
2022/07/18 15:19:07;;;;;;;1.38;0.80;;;40.10;41.70;;;;;;6172523;23;20212;-77
2022/07/18 15:21:35;;;;;;;1.38;0.80;;;40.10;41.00;;;;;;6160534;23;20181;-77
2022/07/18 15:24:10;;;;;;;1.38;0.80;;;39.90;40.50;;;;;;6161208;23;20181;-77
2022/07/18 15:26:40;;;;;;;1.40;0.80;;;39.90;41.90;;;;;;6168702;23;20208;-78
2022/07/18 15:29:08;;;;;;;1.35;0.80;;;39.80;41.20;;;;;;6170188;23;20181;-77
2022/07/18 15:31:42;;;;;;;1.40;0.80;;;39.90;41.80;;;;;;6171149;23;20177;-78
2022/07/18 15:34:10;;;;;;;1.35;0.80;;;40.00;41.50;;;;;;6168573;23;20176;-78
2022/07/18 15:36:41;;;;;;;1.40;0.80;;;40.00;40.00;;;;;;6168958;23;20207;-78
2022/07/18 15:39:10;;;;;;;1.35;0.80;;;40.00;41.00;;;;;;6171281;23;20177;-78
2022/07/18 15:41:39;;;;;;;1.35;0.80;;;40.10;41.40;;;;;;6154149;23;20193;-78
2022/07/18 15:44:16;;;;;;;1.35;0.80;;;40.10;41.70;;;;;;6161627;23;20566;-78
2022/07/18 15:46:43;;;;;;;1.35;0.80;;;40.00;39.90;;;;;;6168664;23;20196;-78
2022/07/18 15:49:34;;;;;;;1.38;0.80;;;40.00;41.20;;;;;;6160369;23;20184;-78
2022/07/18 15:52:03;;;;;;;1.35;0.80;;;40.00;40.60;;;;;;6165797;23;20493;-79
2022/07/18 15:54:30;;;;;;;1.40;0.80;;;39.90;41.00;;;;;;6167991;23;20231;-77
2022/07/18 15:56:59;;;;;;;1.38;0.80;;;39.80;41.40;;;;;;6154843;23;20393;-77
2022/07/18 15:59:40;;;;;;;1.40;0.80;;;39.80;39.80;;;;;;6158924;23;20184;-77
2022/07/18 16:02:40;;;;;;;1.40;0.80;;;39.70;41.20;;;;;;6165065;23;20508;-79
2022/07/18 16:05:35;;;;;;;1.35;0.80;;;39.80;42.40;;;;;;6179600;23;20180;-79
2022/07/18 16:08:52;;;;;;;1.38;0.80;;;39.60;41.90;;;;;;6176391;23;20203;-79
2022/07/18 16:12:37;;;;;;;;;;;;;;;;;;;;;
2022/07/18 16:18:26;;;;;;;1.35;0.80;;;39.70;41.00;;;;;;5910646;24;20200;-78
2022/07/18 16:20:54;;;;;;;1.35;0.80;;;39.50;41.20;;;;;;5992958;23;20223;-78
2022/07/18 16:23:32;;;;;;;1.38;0.80;;;39.50;40.80;;;;;;6171133;23;20204;-78
2022/07/18 16:26:01;;;;;;;1.38;0.80;;;39.40;41.50;;;;;;6169711;23;20260;-78
2022/07/18 16:28:37;;;;;;;1.38;0.80;;;39.10;41.80;;;;;;6170024;23;20403;-79
2022/07/18 16:31:05;;;;;;;1.38;0.80;;;39.00;42.20;;;;;;6173538;23;20630;-77
2022/07/18 16:33:32;;;;;;;1.40;0.80;;;39.00;42.40;;;;;;6157829;23;20207;-77
2022/07/18 16:36:01;;;;;;;1.38;0.80;;;38.90;41.50;;;;;;6170666;23;20173;-77
2022/07/18 16:38:30;;;;;;;1.40;0.80;;;38.80;41.50;;;;;;6163673;23;20602;-78
2022/07/18 16:41:05;;;;;;;1.40;0.80;;;38.70;41.10;;;;;;6173051;23;20187;-79
2022/07/18 16:43:54;;;;;;;1.38;0.80;;;38.60;41.30;;;;;;6172051;23;20663;-77
2022/07/18 16:47:01;;;;;;;1.38;0.80;;;38.40;41.00;;;;;;6160013;23;20564;-78
2022/07/18 16:49:31;;;;;;;1.38;0.80;;;38.40;42.50;;;;;;6159826;23;20161;-78
2022/07/18 16:52:12;;;;;;;1.40;0.80;;;38.40;43.00;;;;;;6171352;23;20191;-80
2022/07/18 16:54:43;;;;;;;1.40;0.80;;;38.50;41.70;;;;;;6168867;23;20169;-79
2022/07/18 16:57:16;;;;;;;1.38;0.80;;;38.50;43.00;;;;;;6160675;23;20193;-78
2022/07/18 16:59:51;;;;;;;1.38;0.80;;;38.30;43.10;;;;;;6167116;23;20259;-78
2022/07/18 17:02:42;;;;;;;1.40;0.80;;;38.30;42.60;;;;;;6162518;23;20404;-78